sensor_id;sensor_type;location;lat;lon;timestamp;P1;durP1;ratioP1;P2;durP2;ratioP2
80836;SDS011;70251;60.008;30.404;2024-02-26T00:01:52;9.40;;;2.60;;
80836;SDS011;70251;60.008;30.404;2024-02-26T00:04:17;8.23;;;3.10;;
80836;SDS011;70251;60.008;30.404;2024-02-26T00:06:43;9.60;;;3.08;;
80836;SDS011;70251;60.008;30.404;2024-02-26T00:09:09;7.43;;;2.60;;
80836;SDS011;70251;60.008;30.404;2024-02-26T00:11:35;8.63;;;2.83;;
80836;SDS011;70251;60.008;30.404;2024-02-26T00:14:02;7.35;;;2.72;;
80836;SDS011;70251;60.008;30.404;2024-02-26T00:16:28;7.90;;;2.80;;
80836;SDS011;70251;60.008;30.404;2024-02-26T00:19:00;9.32;;;2.75;;
80836;SDS011;70251;60.008;30.404;2024-02-26T00:21:27;7.15;;;2.28;;
80836;SDS011;70251;60.008;30.404;2024-02-26T00:23:56;6.28;;;2.35;;
80836;SDS011;70251;60.008;30.404;2024-02-26T00:26:22;7.60;;;2.97;;
80836;SDS011;70251;60.008;30.404;2024-02-26T00:28:48;6.47;;;2.30;;
80836;SDS011;70251;60.008;30.404;2024-02-26T00:31:14;6.70;;;2.67;;
80836;SDS011;70251;60.008;30.404;2024-02-26T00:33:40;9.02;;;2.53;;
80836;SDS011;70251;60.008;30.404;2024-02-26T00:36:06;6.33;;;2.23;;
80836;SDS011;70251;60.008;30.404;2024-02-26T00:38:31;7.88;;;2.50;;
80836;SDS011;70251;60.008;30.404;2024-02-26T00:40:57;6.83;;;2.47;;
80836;SDS011;70251;60.008;30.404;2024-02-26T00:43:23;7.30;;;2.47;;
80836;SDS011;70251;60.008;30.404;2024-02-26T00:45:48;6.47;;;2.53;;
80836;SDS011;70251;60.008;30.404;2024-02-26T00:48:14;6.22;;;2.03;;
80836;SDS011;70251;60.008;30.404;2024-02-26T00:50:40;6.70;;;2.27;;
80836;SDS011;70251;60.008;30.404;2024-02-26T00:53:05;6.55;;;2.00;;
80836;SDS011;70251;60.008;30.404;2024-02-26T00:55:31;6.97;;;2.30;;
80836;SDS011;70251;60.008;30.404;2024-02-26T00:57:57;5.50;;;1.80;;
80836;SDS011;70251;60.008;30.404;2024-02-26T01:00:22;6.73;;;2.20;;
80836;SDS011;70251;60.008;30.404;2024-02-26T01:02:48;6.88;;;2.28;;
80836;SDS011;70251;60.008;30.404;2024-02-26T01:05:14;6.03;;;2.10;;
80836;SDS011;70251;60.008;30.404;2024-02-26T01:07:41;6.20;;;1.90;;
80836;SDS011;70251;60.008;30.404;2024-02-26T01:10:07;6.18;;;2.42;;
80836;SDS011;70251;60.008;30.404;2024-02-26T01:12:34;6.93;;;2.33;;
80836;SDS011;70251;60.008;30.404;2024-02-26T01:15:00;5.05;;;1.83;;
80836;SDS011;70251;60.008;30.404;2024-02-26T01:17:27;6.43;;;1.90;;
80836;SDS011;70251;60.008;30.404;2024-02-26T01:22:37;5.72;;;1.95;;
80836;SDS011;70251;60.008;30.404;2024-02-26T01:25:03;5.32;;;1.90;;
80836;SDS011;70251;60.008;30.404;2024-02-26T01:27:31;6.43;;;2.08;;
80836;SDS011;70251;60.008;30.404;2024-02-26T01:29:56;6.00;;;1.83;;
80836;SDS011;70251;60.008;30.404;2024-02-26T01:32:22;7.10;;;2.17;;
80836;SDS011;70251;60.008;30.404;2024-02-26T01:34:48;6.78;;;2.25;;
80836;SDS011;70251;60.008;30.404;2024-02-26T01:37:13;6.50;;;2.00;;
80836;SDS011;70251;60.008;30.404;2024-02-26T01:39:39;9.03;;;2.10;;
80836;SDS011;70251;60.008;30.404;2024-02-26T01:42:06;7.83;;;1.97;;
80836;SDS011;70251;60.008;30.404;2024-02-26T01:44:32;7.72;;;2.50;;
80836;SDS011;70251;60.008;30.404;2024-02-26T01:46:58;5.80;;;1.75;;
80836;SDS011;70251;60.008;30.404;2024-02-26T01:49:26;6.00;;;1.92;;
80836;SDS011;70251;60.008;30.404;2024-02-26T01:51:53;6.50;;;2.10;;
80836;SDS011;70251;60.008;30.404;2024-02-26T01:54:19;5.93;;;1.90;;
80836;SDS011;70251;60.008;30.404;2024-02-26T01:56:46;6.47;;;1.80;;
80836;SDS011;70251;60.008;30.404;2024-02-26T01:59:12;5.90;;;2.15;;
80836;SDS011;70251;60.008;30.404;2024-02-26T02:01:39;6.83;;;1.87;;
80836;SDS011;70251;60.008;30.404;2024-02-26T02:04:27;8.43;;;2.53;;
80836;SDS011;70251;60.008;30.404;2024-02-26T02:06:53;6.32;;;1.98;;
80836;SDS011;70251;60.008;30.404;2024-02-26T02:09:19;7.00;;;1.75;;
80836;SDS011;70251;60.008;30.404;2024-02-26T02:11:46;6.30;;;1.90;;
80836;SDS011;70251;60.008;30.404;2024-02-26T02:14:14;8.35;;;2.40;;
80836;SDS011;70251;60.008;30.404;2024-02-26T02:16:40;7.20;;;2.13;;
80836;SDS011;70251;60.008;30.404;2024-02-26T02:19:06;6.03;;;1.63;;
80836;SDS011;70251;60.008;30.404;2024-02-26T02:21:32;7.07;;;2.30;;
80836;SDS011;70251;60.008;30.404;2024-02-26T02:23:57;6.93;;;2.03;;
80836;SDS011;70251;60.008;30.404;2024-02-26T02:26:23;7.07;;;1.80;;
80836;SDS011;70251;60.008;30.404;2024-02-26T02:28:49;6.28;;;1.77;;
80836;SDS011;70251;60.008;30.404;2024-02-26T02:31:19;5.40;;;1.83;;
80836;SDS011;70251;60.008;30.404;2024-02-26T02:33:45;5.85;;;1.60;;
80836;SDS011;70251;60.008;30.404;2024-02-26T02:36:11;5.10;;;1.43;;
80836;SDS011;70251;60.008;30.404;2024-02-26T02:38:37;6.03;;;1.70;;
80836;SDS011;70251;60.008;30.404;2024-02-26T02:41:06;6.32;;;1.88;;
80836;SDS011;70251;60.008;30.404;2024-02-26T02:43:34;6.55;;;1.90;;
80836;SDS011;70251;60.008;30.404;2024-02-26T02:46:00;10.87;;;2.20;;
80836;SDS011;70251;60.008;30.404;2024-02-26T02:48:25;6.33;;;2.27;;
80836;SDS011;70251;60.008;30.404;2024-02-26T02:50:51;11.32;;;2.28;;
80836;SDS011;70251;60.008;30.404;2024-02-26T02:53:17;6.10;;;2.03;;
80836;SDS011;70251;60.008;30.404;2024-02-26T02:55:43;8.57;;;2.70;;
80836;SDS011;70251;60.008;30.404;2024-02-26T02:58:09;8.32;;;2.17;;
80836;SDS011;70251;60.008;30.404;2024-02-26T03:00:34;7.37;;;2.27;;
80836;SDS011;70251;60.008;30.404;2024-02-26T03:03:00;7.73;;;2.50;;
80836;SDS011;70251;60.008;30.404;2024-02-26T03:05:26;7.70;;;2.33;;
80836;SDS011;70251;60.008;30.404;2024-02-26T03:07:51;8.47;;;2.70;;
80836;SDS011;70251;60.008;30.404;2024-02-26T03:10:17;8.47;;;2.73;;
80836;SDS011;70251;60.008;30.404;2024-02-26T03:12:43;6.13;;;1.67;;
80836;SDS011;70251;60.008;30.404;2024-02-26T03:15:09;7.60;;;2.77;;
80836;SDS011;70251;60.008;30.404;2024-02-26T03:17:36;9.68;;;2.63;;
80836;SDS011;70251;60.008;30.404;2024-02-26T03:20:02;9.02;;;2.70;;
80836;SDS011;70251;60.008;30.404;2024-02-26T03:22:35;6.97;;;2.90;;
80836;SDS011;70251;60.008;30.404;2024-02-26T03:25:01;22.13;;;3.50;;
80836;SDS011;70251;60.008;30.404;2024-02-26T03:27:30;12.40;;;3.13;;
80836;SDS011;70251;60.008;30.404;2024-02-26T03:29:56;8.40;;;3.10;;
80836;SDS011;70251;60.008;30.404;2024-02-26T03:32:22;7.30;;;2.72;;
80836;SDS011;70251;60.008;30.404;2024-02-26T03:34:48;8.38;;;2.70;;
80836;SDS011;70251;60.008;30.404;2024-02-26T03:37:13;11.90;;;3.10;;
80836;SDS011;70251;60.008;30.404;2024-02-26T03:39:40;6.95;;;2.42;;
80836;SDS011;70251;60.008;30.404;2024-02-26T03:42:06;6.40;;;2.42;;
80836;SDS011;70251;60.008;30.404;2024-02-26T03:44:31;8.20;;;2.83;;
80836;SDS011;70251;60.008;30.404;2024-02-26T03:46:57;8.25;;;2.78;;
80836;SDS011;70251;60.008;30.404;2024-02-26T03:49:23;6.77;;;2.50;;
80836;SDS011;70251;60.008;30.404;2024-02-26T03:51:53;7.30;;;2.70;;
80836;SDS011;70251;60.008;30.404;2024-02-26T03:54:19;6.53;;;2.30;;
80836;SDS011;70251;60.008;30.404;2024-02-26T03:56:44;9.13;;;2.63;;
80836;SDS011;70251;60.008;30.404;2024-02-26T03:59:10;9.17;;;2.90;;
80836;SDS011;70251;60.008;30.404;2024-02-26T04:01:36;7.22;;;2.90;;
80836;SDS011;70251;60.008;30.404;2024-02-26T04:04:20;10.23;;;2.90;;
80836;SDS011;70251;60.008;30.404;2024-02-26T04:06:46;8.77;;;2.72;;
80836;SDS011;70251;60.008;30.404;2024-02-26T04:09:13;8.15;;;2.90;;
80836;SDS011;70251;60.008;30.404;2024-02-26T04:11:50;9.00;;;2.85;;
80836;SDS011;70251;60.008;30.404;2024-02-26T04:14:15;9.50;;;3.13;;
80836;SDS011;70251;60.008;30.404;2024-02-26T04:16:41;8.77;;;2.87;;
80836;SDS011;70251;60.008;30.404;2024-02-26T04:19:07;8.90;;;3.23;;
80836;SDS011;70251;60.008;30.404;2024-02-26T04:21:33;7.43;;;2.87;;
80836;SDS011;70251;60.008;30.404;2024-02-26T04:23:59;7.68;;;2.92;;
80836;SDS011;70251;60.008;30.404;2024-02-26T04:26:27;9.07;;;3.42;;
80836;SDS011;70251;60.008;30.404;2024-02-26T04:28:54;8.53;;;3.40;;
80836;SDS011;70251;60.008;30.404;2024-02-26T04:31:20;8.68;;;3.20;;
80836;SDS011;70251;60.008;30.404;2024-02-26T04:33:58;8.00;;;3.17;;
80836;SDS011;70251;60.008;30.404;2024-02-26T04:36:25;7.85;;;3.10;;
80836;SDS011;70251;60.008;30.404;2024-02-26T04:38:55;9.37;;;3.30;;
80836;SDS011;70251;60.008;30.404;2024-02-26T04:41:27;10.30;;;3.33;;
80836;SDS011;70251;60.008;30.404;2024-02-26T04:43:53;8.65;;;3.25;;
80836;SDS011;70251;60.008;30.404;2024-02-26T04:46:18;10.70;;;3.63;;
80836;SDS011;70251;60.008;30.404;2024-02-26T04:48:47;9.07;;;3.83;;
80836;SDS011;70251;60.008;30.404;2024-02-26T04:51:13;10.88;;;2.90;;
80836;SDS011;70251;60.008;30.404;2024-02-26T04:53:38;10.20;;;3.80;;
80836;SDS011;70251;60.008;30.404;2024-02-26T04:56:05;9.85;;;3.78;;
80836;SDS011;70251;60.008;30.404;2024-02-26T04:58:31;9.43;;;4.05;;
80836;SDS011;70251;60.008;30.404;2024-02-26T05:00:56;9.20;;;4.30;;
80836;SDS011;70251;60.008;30.404;2024-02-26T05:03:22;9.10;;;3.47;;
80836;SDS011;70251;60.008;30.404;2024-02-26T05:05:54;8.57;;;3.35;;
80836;SDS011;70251;60.008;30.404;2024-02-26T05:08:23;8.75;;;3.92;;
80836;SDS011;70251;60.008;30.404;2024-02-26T05:11:05;9.63;;;3.80;;
80836;SDS011;70251;60.008;30.404;2024-02-26T05:16:31;11.45;;;4.07;;
80836;SDS011;70251;60.008;30.404;2024-02-26T05:18:59;10.03;;;3.50;;
80836;SDS011;70251;60.008;30.404;2024-02-26T05:21:46;13.45;;;4.03;;
80836;SDS011;70251;60.008;30.404;2024-02-26T05:24:14;10.45;;;3.53;;
80836;SDS011;70251;60.008;30.404;2024-02-26T05:26:42;10.40;;;3.70;;
80836;SDS011;70251;60.008;30.404;2024-02-26T05:29:09;8.98;;;3.85;;
80836;SDS011;70251;60.008;30.404;2024-02-26T05:31:35;12.35;;;5.03;;
80836;SDS011;70251;60.008;30.404;2024-02-26T05:34:01;9.48;;;3.97;;
80836;SDS011;70251;60.008;30.404;2024-02-26T05:36:26;11.43;;;3.57;;
80836;SDS011;70251;60.008;30.404;2024-02-26T05:39:04;13.70;;;4.05;;
80836;SDS011;70251;60.008;30.404;2024-02-26T05:41:30;9.23;;;3.63;;
80836;SDS011;70251;60.008;30.404;2024-02-26T05:44:14;8.68;;;3.50;;
80836;SDS011;70251;60.008;30.404;2024-02-26T05:46:41;10.70;;;4.05;;
80836;SDS011;70251;60.008;30.404;2024-02-26T05:49:07;11.80;;;3.45;;
80836;SDS011;70251;60.008;30.404;2024-02-26T05:51:33;17.03;;;4.50;;
80836;SDS011;70251;60.008;30.404;2024-02-26T05:53:58;10.75;;;3.83;;
80836;SDS011;70251;60.008;30.404;2024-02-26T05:56:24;13.00;;;4.10;;
80836;SDS011;70251;60.008;30.404;2024-02-26T05:58:50;10.88;;;3.75;;
80836;SDS011;70251;60.008;30.404;2024-02-26T06:01:16;10.33;;;3.83;;
80836;SDS011;70251;60.008;30.404;2024-02-26T06:03:42;10.63;;;3.72;;
80836;SDS011;70251;60.008;30.404;2024-02-26T06:06:11;10.25;;;2.67;;
80836;SDS011;70251;60.008;30.404;2024-02-26T06:08:40;11.13;;;3.38;;
80836;SDS011;70251;60.008;30.404;2024-02-26T06:11:06;9.40;;;3.43;;
80836;SDS011;70251;60.008;30.404;2024-02-26T06:13:32;12.65;;;4.18;;
80836;SDS011;70251;60.008;30.404;2024-02-26T06:15:58;8.93;;;3.75;;
80836;SDS011;70251;60.008;30.404;2024-02-26T06:18:24;15.87;;;4.20;;
80836;SDS011;70251;60.008;30.404;2024-02-26T06:20:50;8.47;;;3.43;;
80836;SDS011;70251;60.008;30.404;2024-02-26T06:23:15;9.18;;;3.78;;
80836;SDS011;70251;60.008;30.404;2024-02-26T06:25:41;9.40;;;3.87;;
80836;SDS011;70251;60.008;30.404;2024-02-26T06:28:08;11.48;;;3.72;;
80836;SDS011;70251;60.008;30.404;2024-02-26T06:30:33;10.25;;;4.32;;
80836;SDS011;70251;60.008;30.404;2024-02-26T06:32:59;14.47;;;3.80;;
80836;SDS011;70251;60.008;30.404;2024-02-26T06:35:25;10.60;;;4.30;;
80836;SDS011;70251;60.008;30.404;2024-02-26T06:37:51;11.90;;;4.28;;
80836;SDS011;70251;60.008;30.404;2024-02-26T06:40:18;12.10;;;4.15;;
80836;SDS011;70251;60.008;30.404;2024-02-26T06:42:44;14.73;;;4.88;;
80836;SDS011;70251;60.008;30.404;2024-02-26T06:45:10;13.60;;;4.10;;
80836;SDS011;70251;60.008;30.404;2024-02-26T06:47:35;10.93;;;4.43;;
80836;SDS011;70251;60.008;30.404;2024-02-26T06:50:02;11.77;;;4.43;;
80836;SDS011;70251;60.008;30.404;2024-02-26T06:52:30;12.07;;;4.60;;
80836;SDS011;70251;60.008;30.404;2024-02-26T06:54:56;11.02;;;4.28;;
80836;SDS011;70251;60.008;30.404;2024-02-26T06:57:21;13.90;;;4.27;;
80836;SDS011;70251;60.008;30.404;2024-02-26T06:59:47;9.63;;;3.90;;
80836;SDS011;70251;60.008;30.404;2024-02-26T07:02:13;19.97;;;4.90;;
80836;SDS011;70251;60.008;30.404;2024-02-26T07:04:39;12.35;;;5.00;;
80836;SDS011;70251;60.008;30.404;2024-02-26T07:07:06;13.73;;;3.70;;
80836;SDS011;70251;60.008;30.404;2024-02-26T07:09:32;11.73;;;4.72;;
80836;SDS011;70251;60.008;30.404;2024-02-26T07:12:01;12.10;;;5.00;;
80836;SDS011;70251;60.008;30.404;2024-02-26T07:14:30;14.32;;;4.20;;
80836;SDS011;70251;60.008;30.404;2024-02-26T07:16:55;14.20;;;4.93;;
80836;SDS011;70251;60.008;30.404;2024-02-26T07:19:21;12.23;;;4.77;;
80836;SDS011;70251;60.008;30.404;2024-02-26T07:21:47;10.77;;;4.47;;
80836;SDS011;70251;60.008;30.404;2024-02-26T07:24:12;13.53;;;4.40;;
80836;SDS011;70251;60.008;30.404;2024-02-26T07:26:39;8.88;;;3.63;;
80836;SDS011;70251;60.008;30.404;2024-02-26T07:29:05;12.23;;;5.30;;
80836;SDS011;70251;60.008;30.404;2024-02-26T07:31:30;10.33;;;3.97;;
80836;SDS011;70251;60.008;30.404;2024-02-26T07:33:56;15.40;;;7.00;;
80836;SDS011;70251;60.008;30.404;2024-02-26T07:36:22;12.80;;;4.77;;
80836;SDS011;70251;60.008;30.404;2024-02-26T07:38:47;10.82;;;3.83;;
80836;SDS011;70251;60.008;30.404;2024-02-26T07:41:13;11.70;;;4.67;;
80836;SDS011;70251;60.008;30.404;2024-02-26T07:43:39;9.55;;;4.05;;
80836;SDS011;70251;60.008;30.404;2024-02-26T07:46:06;10.93;;;4.10;;
80836;SDS011;70251;60.008;30.404;2024-02-26T07:48:32;9.65;;;4.53;;
80836;SDS011;70251;60.008;30.404;2024-02-26T07:50:57;8.03;;;1.97;;
80836;SDS011;70251;60.008;30.404;2024-02-26T07:53:30;8.15;;;3.35;;
80836;SDS011;70251;60.008;30.404;2024-02-26T07:55:56;10.48;;;4.43;;
80836;SDS011;70251;60.008;30.404;2024-02-26T07:58:23;9.13;;;2.37;;
80836;SDS011;70251;60.008;30.404;2024-02-26T08:00:49;9.73;;;3.95;;
80836;SDS011;70251;60.008;30.404;2024-02-26T08:03:15;8.25;;;3.47;;
80836;SDS011;70251;60.008;30.404;2024-02-26T08:05:41;9.65;;;3.95;;
80836;SDS011;70251;60.008;30.404;2024-02-26T08:08:08;8.43;;;3.53;;
80836;SDS011;70251;60.008;30.404;2024-02-26T08:10:34;8.25;;;3.58;;
80836;SDS011;70251;60.008;30.404;2024-02-26T08:13:00;9.70;;;3.78;;
80836;SDS011;70251;60.008;30.404;2024-02-26T08:15:31;9.80;;;4.13;;
80836;SDS011;70251;60.008;30.404;2024-02-26T08:18:01;9.70;;;3.92;;
80836;SDS011;70251;60.008;30.404;2024-02-26T08:20:30;9.32;;;3.20;;
80836;SDS011;70251;60.008;30.404;2024-02-26T08:22:56;9.98;;;4.05;;
80836;SDS011;70251;60.008;30.404;2024-02-26T08:25:23;9.88;;;4.22;;
80836;SDS011;70251;60.008;30.404;2024-02-26T08:27:49;7.93;;;3.03;;
80836;SDS011;70251;60.008;30.404;2024-02-26T08:30:16;8.18;;;3.35;;
80836;SDS011;70251;60.008;30.404;2024-02-26T08:32:45;9.18;;;4.10;;
80836;SDS011;70251;60.008;30.404;2024-02-26T08:35:13;10.25;;;4.93;;
80836;SDS011;70251;60.008;30.404;2024-02-26T08:37:38;9.17;;;4.20;;
80836;SDS011;70251;60.008;30.404;2024-02-26T08:40:05;10.77;;;4.57;;
80836;SDS011;70251;60.008;30.404;2024-02-26T08:42:31;9.55;;;3.55;;
80836;SDS011;70251;60.008;30.404;2024-02-26T08:44:57;11.57;;;4.80;;
80836;SDS011;70251;60.008;30.404;2024-02-26T08:47:25;11.05;;;4.82;;
80836;SDS011;70251;60.008;30.404;2024-02-26T08:49:51;10.18;;;4.53;;
80836;SDS011;70251;60.008;30.404;2024-02-26T08:52:17;11.13;;;4.73;;
80836;SDS011;70251;60.008;30.404;2024-02-26T08:54:42;11.02;;;4.68;;
80836;SDS011;70251;60.008;30.404;2024-02-26T08:57:08;9.80;;;4.30;;
80836;SDS011;70251;60.008;30.404;2024-02-26T08:59:34;10.25;;;4.53;;
80836;SDS011;70251;60.008;30.404;2024-02-26T09:02:00;9.65;;;4.63;;
80836;SDS011;70251;60.008;30.404;2024-02-26T09:04:26;7.43;;;2.67;;
80836;SDS011;70251;60.008;30.404;2024-02-26T09:06:53;9.35;;;4.18;;
80836;SDS011;70251;60.008;30.404;2024-02-26T09:09:19;9.80;;;4.03;;
80836;SDS011;70251;60.008;30.404;2024-02-26T09:11:45;10.32;;;3.42;;
80836;SDS011;70251;60.008;30.404;2024-02-26T09:14:12;8.37;;;2.50;;
80836;SDS011;70251;60.008;30.404;2024-02-26T09:16:37;8.90;;;3.40;;
80836;SDS011;70251;60.008;30.404;2024-02-26T09:19:03;7.57;;;3.60;;
80836;SDS011;70251;60.008;30.404;2024-02-26T09:21:31;7.78;;;3.00;;
80836;SDS011;70251;60.008;30.404;2024-02-26T09:23:57;7.13;;;3.00;;
80836;SDS011;70251;60.008;30.404;2024-02-26T09:26:26;5.10;;;1.57;;
80836;SDS011;70251;60.008;30.404;2024-02-26T09:28:51;8.07;;;3.42;;
80836;SDS011;70251;60.008;30.404;2024-02-26T09:31:19;7.30;;;2.70;;
80836;SDS011;70251;60.008;30.404;2024-02-26T09:33:45;6.82;;;2.88;;
80836;SDS011;70251;60.008;30.404;2024-02-26T09:36:11;7.10;;;2.70;;
80836;SDS011;70251;60.008;30.404;2024-02-26T09:38:37;7.80;;;3.50;;
80836;SDS011;70251;60.008;30.404;2024-02-26T09:41:04;6.78;;;2.50;;
80836;SDS011;70251;60.008;30.404;2024-02-26T09:43:36;7.07;;;2.53;;
80836;SDS011;70251;60.008;30.404;2024-02-26T09:46:04;6.47;;;2.70;;
80836;SDS011;70251;60.008;30.404;2024-02-26T09:48:31;7.50;;;3.08;;
80836;SDS011;70251;60.008;30.404;2024-02-26T09:51:00;7.55;;;3.13;;
80836;SDS011;70251;60.008;30.404;2024-02-26T09:53:28;8.10;;;3.05;;
80836;SDS011;70251;60.008;30.404;2024-02-26T09:58:41;6.57;;;2.47;;
80836;SDS011;70251;60.008;30.404;2024-02-26T10:01:11;8.57;;;3.33;;
80836;SDS011;70251;60.008;30.404;2024-02-26T10:03:41;7.70;;;2.60;;
80836;SDS011;70251;60.008;30.404;2024-02-26T10:06:28;7.22;;;2.78;;
80836;SDS011;70251;60.008;30.404;2024-02-26T10:08:57;7.15;;;2.83;;
80836;SDS011;70251;60.008;30.404;2024-02-26T10:11:24;6.20;;;2.67;;
80836;SDS011;70251;60.008;30.404;2024-02-26T10:13:50;6.72;;;2.95;;
80836;SDS011;70251;60.008;30.404;2024-02-26T10:16:17;6.97;;;2.50;;
80836;SDS011;70251;60.008;30.404;2024-02-26T10:18:49;5.72;;;2.15;;
80836;SDS011;70251;60.008;30.404;2024-02-26T10:21:17;9.63;;;2.50;;
80836;SDS011;70251;60.008;30.404;2024-02-26T10:23:45;5.40;;;1.92;;
80836;SDS011;70251;60.008;30.404;2024-02-26T10:26:22;6.13;;;2.30;;
80836;SDS011;70251;60.008;30.404;2024-02-26T10:28:47;7.93;;;2.67;;
80836;SDS011;70251;60.008;30.404;2024-02-26T10:31:13;6.90;;;2.35;;
80836;SDS011;70251;60.008;30.404;2024-02-26T10:33:42;6.25;;;2.20;;
80836;SDS011;70251;60.008;30.404;2024-02-26T10:36:15;5.50;;;1.83;;
80836;SDS011;70251;60.008;30.404;2024-02-26T10:38:49;5.25;;;2.00;;
80836;SDS011;70251;60.008;30.404;2024-02-26T10:41:18;6.37;;;2.10;;
80836;SDS011;70251;60.008;30.404;2024-02-26T10:43:45;6.10;;;2.33;;
80836;SDS011;70251;60.008;30.404;2024-02-26T10:46:12;5.30;;;2.13;;
80836;SDS011;70251;60.008;30.404;2024-02-26T10:49:04;4.20;;;1.27;;
80836;SDS011;70251;60.008;30.404;2024-02-26T10:51:52;6.47;;;1.80;;
80836;SDS011;70251;60.008;30.404;2024-02-26T10:54:25;5.32;;;1.75;;
80836;SDS011;70251;60.008;30.404;2024-02-26T10:56:56;6.30;;;1.80;;
80836;SDS011;70251;60.008;30.404;2024-02-26T10:59:24;6.57;;;1.90;;
80836;SDS011;70251;60.008;30.404;2024-02-26T11:01:50;5.73;;;2.23;;
80836;SDS011;70251;60.008;30.404;2024-02-26T11:04:17;6.15;;;2.08;;
80836;SDS011;70251;60.008;30.404;2024-02-26T11:06:47;5.57;;;1.88;;
80836;SDS011;70251;60.008;30.404;2024-02-26T11:09:15;8.13;;;2.05;;
80836;SDS011;70251;60.008;30.404;2024-02-26T11:11:42;5.72;;;2.30;;
80836;SDS011;70251;60.008;30.404;2024-02-26T11:14:09;4.70;;;1.20;;
80836;SDS011;70251;60.008;30.404;2024-02-26T11:16:37;6.18;;;1.77;;
80836;SDS011;70251;60.008;30.404;2024-02-26T11:19:04;6.47;;;1.55;;
80836;SDS011;70251;60.008;30.404;2024-02-26T11:21:34;6.78;;;2.00;;
80836;SDS011;70251;60.008;30.404;2024-02-26T11:24:13;6.25;;;2.22;;
80836;SDS011;70251;60.008;30.404;2024-02-26T11:26:48;5.23;;;1.50;;
80836;SDS011;70251;60.008;30.404;2024-02-26T11:29:29;4.82;;;1.30;;
80836;SDS011;70251;60.008;30.404;2024-02-26T11:32:00;6.25;;;1.60;;
80836;SDS011;70251;60.008;30.404;2024-02-26T11:34:26;5.68;;;1.63;;
80836;SDS011;70251;60.008;30.404;2024-02-26T11:36:53;6.32;;;1.75;;
80836;SDS011;70251;60.008;30.404;2024-02-26T11:39:23;5.63;;;1.70;;
80836;SDS011;70251;60.008;30.404;2024-02-26T11:42:00;4.40;;;1.50;;
80836;SDS011;70251;60.008;30.404;2024-02-26T11:44:30;6.30;;;1.90;;
80836;SDS011;70251;60.008;30.404;2024-02-26T11:46:56;4.37;;;1.27;;
80836;SDS011;70251;60.008;30.404;2024-02-26T11:51:53;4.25;;;1.55;;
80836;SDS011;70251;60.008;30.404;2024-02-26T11:54:39;4.40;;;1.20;;
80836;SDS011;70251;60.008;30.404;2024-02-26T12:02:55;5.03;;;1.50;;
80836;SDS011;70251;60.008;30.404;2024-02-26T12:05:27;3.05;;;0.88;;
80836;SDS011;70251;60.008;30.404;2024-02-26T12:08:00;4.07;;;1.17;;
80836;SDS011;70251;60.008;30.404;2024-02-26T12:10:39;4.60;;;1.10;;
80836;SDS011;70251;60.008;30.404;2024-02-26T12:13:10;4.97;;;1.17;;
80836;SDS011;70251;60.008;30.404;2024-02-26T12:15:39;3.80;;;0.85;;
80836;SDS011;70251;60.008;30.404;2024-02-26T12:18:07;6.53;;;1.50;;
80836;SDS011;70251;60.008;30.404;2024-02-26T12:20:35;4.80;;;1.20;;
80836;SDS011;70251;60.008;30.404;2024-02-26T12:23:01;7.43;;;1.50;;
80836;SDS011;70251;60.008;30.404;2024-02-26T12:25:29;6.53;;;0.97;;
80836;SDS011;70251;60.008;30.404;2024-02-26T12:27:56;4.35;;;0.82;;
80836;SDS011;70251;60.008;30.404;2024-02-26T12:36:10;6.18;;;1.40;;
80836;SDS011;70251;60.008;30.404;2024-02-26T12:38:36;4.40;;;1.40;;
80836;SDS011;70251;60.008;30.404;2024-02-26T12:41:03;4.60;;;1.10;;
80836;SDS011;70251;60.008;30.404;2024-02-26T12:43:29;3.90;;;1.25;;
80836;SDS011;70251;60.008;30.404;2024-02-26T12:45:56;4.93;;;1.27;;
80836;SDS011;70251;60.008;30.404;2024-02-26T12:48:22;4.80;;;1.10;;
80836;SDS011;70251;60.008;30.404;2024-02-26T12:50:50;4.82;;;1.20;;
80836;SDS011;70251;60.008;30.404;2024-02-26T12:53:16;2.97;;;0.80;;
80836;SDS011;70251;60.008;30.404;2024-02-26T12:55:45;3.37;;;0.80;;
80836;SDS011;70251;60.008;30.404;2024-02-26T12:58:11;4.47;;;1.20;;
80836;SDS011;70251;60.008;30.404;2024-02-26T13:00:37;5.70;;;1.45;;
80836;SDS011;70251;60.008;30.404;2024-02-26T13:03:03;5.05;;;1.20;;
80836;SDS011;70251;60.008;30.404;2024-02-26T13:05:29;4.23;;;1.10;;
80836;SDS011;70251;60.008;30.404;2024-02-26T13:07:56;5.22;;;1.15;;
80836;SDS011;70251;60.008;30.404;2024-02-26T13:10:21;5.15;;;1.45;;
80836;SDS011;70251;60.008;30.404;2024-02-26T13:13:01;3.83;;;1.10;;
80836;SDS011;70251;60.008;30.404;2024-02-26T13:15:43;4.23;;;1.10;;
80836;SDS011;70251;60.008;30.404;2024-02-26T13:18:10;4.47;;;1.17;;
80836;SDS011;70251;60.008;30.404;2024-02-26T13:20:37;6.20;;;0.90;;
80836;SDS011;70251;60.008;30.404;2024-02-26T13:23:06;3.40;;;0.70;;
80836;SDS011;70251;60.008;30.404;2024-02-26T13:25:34;3.33;;;0.88;;
80836;SDS011;70251;60.008;30.404;2024-02-26T13:28:07;3.17;;;0.80;;
80836;SDS011;70251;60.008;30.404;2024-02-26T13:30:35;4.55;;;1.30;;
80836;SDS011;70251;60.008;30.404;2024-02-26T13:33:11;3.70;;;0.98;;
80836;SDS011;70251;60.008;30.404;2024-02-26T13:35:41;2.90;;;0.77;;
80836;SDS011;70251;60.008;30.404;2024-02-26T13:38:07;2.80;;;0.75;;
80836;SDS011;70251;60.008;30.404;2024-02-26T13:40:34;2.40;;;0.50;;
80836;SDS011;70251;60.008;30.404;2024-02-26T13:43:06;2.75;;;0.68;;
80836;SDS011;70251;60.008;30.404;2024-02-26T13:45:35;4.03;;;1.10;;
80836;SDS011;70251;60.008;30.404;2024-02-26T13:48:07;2.70;;;0.60;;
80836;SDS011;70251;60.008;30.404;2024-02-26T13:50:38;5.25;;;0.70;;
80836;SDS011;70251;60.008;30.404;2024-02-26T13:53:13;3.30;;;0.70;;
80836;SDS011;70251;60.008;30.404;2024-02-26T13:55:58;3.72;;;0.80;;
80836;SDS011;70251;60.008;30.404;2024-02-26T13:58:28;3.85;;;0.73;;
80836;SDS011;70251;60.008;30.404;2024-02-26T14:00:54;4.00;;;0.90;;
80836;SDS011;70251;60.008;30.404;2024-02-26T14:03:25;2.40;;;0.47;;
80836;SDS011;70251;60.008;30.404;2024-02-26T14:05:51;5.82;;;1.00;;
80836;SDS011;70251;60.008;30.404;2024-02-26T14:08:17;4.07;;;1.10;;
80836;SDS011;70251;60.008;30.404;2024-02-26T14:10:43;3.37;;;0.80;;
80836;SDS011;70251;60.008;30.404;2024-02-26T14:13:09;4.00;;;0.88;;
80836;SDS011;70251;60.008;30.404;2024-02-26T14:15:35;4.10;;;1.05;;
80836;SDS011;70251;60.008;30.404;2024-02-26T14:18:04;3.33;;;0.70;;
80836;SDS011;70251;60.008;30.404;2024-02-26T14:20:31;4.40;;;1.08;;
80836;SDS011;70251;60.008;30.404;2024-02-26T14:23:06;3.92;;;0.95;;
80836;SDS011;70251;60.008;30.404;2024-02-26T14:25:33;4.97;;;1.47;;
80836;SDS011;70251;60.008;30.404;2024-02-26T14:27:59;5.38;;;1.60;;
80836;SDS011;70251;60.008;30.404;2024-02-26T14:30:25;5.03;;;1.90;;
80836;SDS011;70251;60.008;30.404;2024-02-26T14:32:51;4.20;;;1.40;;
80836;SDS011;70251;60.008;30.404;2024-02-26T14:35:18;4.15;;;1.15;;
80836;SDS011;70251;60.008;30.404;2024-02-26T14:37:44;4.45;;;1.17;;
80836;SDS011;70251;60.008;30.404;2024-02-26T14:40:13;5.00;;;1.10;;
80836;SDS011;70251;60.008;30.404;2024-02-26T14:42:39;3.45;;;0.90;;
80836;SDS011;70251;60.008;30.404;2024-02-26T14:45:06;4.47;;;0.93;;
80836;SDS011;70251;60.008;30.404;2024-02-26T14:47:37;5.03;;;1.17;;
80836;SDS011;70251;60.008;30.404;2024-02-26T14:50:04;3.90;;;0.97;;
80836;SDS011;70251;60.008;30.404;2024-02-26T14:52:30;3.83;;;0.82;;
80836;SDS011;70251;60.008;30.404;2024-02-26T14:54:56;2.58;;;0.63;;
80836;SDS011;70251;60.008;30.404;2024-02-26T14:57:23;5.45;;;1.30;;